createdAt,value
2023-06-22T00:01:22.505Z,26.47
2023-06-22T00:03:49.733Z,26.44
2023-06-22T00:06:16.948Z,26.41
2023-06-22T00:08:43.786Z,26.40
2023-06-22T00:11:10.586Z,26.40
2023-06-22T00:13:37.380Z,26.41
2023-06-22T00:16:04.544Z,26.46
2023-06-22T00:18:32.057Z,26.47
2023-06-22T00:20:59.698Z,26.45
2023-06-22T00:23:27.532Z,26.42
2023-06-22T00:25:54.377Z,26.40
2023-06-22T00:28:21.333Z,26.39
2023-06-22T00:30:50.354Z,26.41
2023-06-22T00:33:18.974Z,26.45
2023-06-22T00:35:45.844Z,26.47
2023-06-22T00:38:12.873Z,26.50
2023-06-22T00:40:42.424Z,26.52
2023-06-22T00:43:09.281Z,26.54
2023-06-22T00:45:36.140Z,26.50
2023-06-22T00:48:04.387Z,26.48
2023-06-22T00:50:36.597Z,26.48
2023-06-22T00:53:09.604Z,26.49
2023-06-22T00:55:44.565Z,26.52
2023-06-22T00:58:12.937Z,26.54
2023-06-22T01:00:41.410Z,26.56
2023-06-22T01:03:10.785Z,26.58
2023-06-22T01:05:39.526Z,26.58
2023-06-22T01:08:18.517Z,26.57
2023-06-22T01:11:23.686Z,26.57
2023-06-22T01:14:15.516Z,26.54
2023-06-22T01:16:45.155Z,26.51
2023-06-22T01:20:00.420Z,26.49
2023-06-22T01:22:31.490Z,26.47
2023-06-22T01:25:04.444Z,26.45
2023-06-22T01:27:52.974Z,26.42
2023-06-22T01:30:20.413Z,26.40
2023-06-22T01:32:49.655Z,26.38
2023-06-22T01:35:17.753Z,26.38
2023-06-22T01:37:45.530Z,26.38
2023-06-22T01:40:13.936Z,26.37
2023-06-22T01:42:40.915Z,26.35
2023-06-22T01:45:08.855Z,26.33
2023-06-22T01:47:40.232Z,26.30
2023-06-22T01:50:07.822Z,26.26
2023-06-22T01:52:35.254Z,26.22
2023-06-22T01:55:02.765Z,26.17
2023-06-22T01:57:29.893Z,26.12
2023-06-22T01:59:59.904Z,26.08
2023-06-22T02:02:32.010Z,26.04
2023-06-22T02:05:04.561Z,26.01
2023-06-22T02:07:36.492Z,25.97
2023-06-22T02:10:05.193Z,25.91
2023-06-22T02:12:33.358Z,25.86
2023-06-22T02:15:02.113Z,25.83
2023-06-22T02:17:34.482Z,25.80
2023-06-22T02:20:05.892Z,25.78
2023-06-22T02:22:32.708Z,25.79
2023-06-22T02:24:59.748Z,25.77
2023-06-22T02:27:26.492Z,25.76
2023-06-22T02:29:53.319Z,25.76
2023-06-22T02:32:20.191Z,25.75
2023-06-22T02:34:48.972Z,25.73
2023-06-22T02:37:16.795Z,25.71
2023-06-22T02:39:43.867Z,25.67
2023-06-22T02:42:11.904Z,25.65
2023-06-22T02:44:39.189Z,25.66
2023-06-22T02:47:06.321Z,25.69
2023-06-22T02:49:33.275Z,25.68
2023-06-22T02:52:00.513Z,25.67
2023-06-22T02:54:27.627Z,25.68
2023-06-22T02:56:55.004Z,25.72
2023-06-22T02:59:25.625Z,25.77
2023-06-22T03:01:57.968Z,25.82
2023-06-22T03:04:28.338Z,25.85
2023-06-22T03:06:55.138Z,25.88
2023-06-22T03:09:21.997Z,25.90
2023-06-22T03:11:48.819Z,25.90
2023-06-22T03:14:15.694Z,25.89
2023-06-22T03:16:42.950Z,25.87
2023-06-22T03:19:09.737Z,25.82
2023-06-22T03:21:38.608Z,25.79
2023-06-22T03:24:06.525Z,25.77
2023-06-22T03:26:33.294Z,25.76
2023-06-22T03:29:00.243Z,25.77
2023-06-22T03:31:30.925Z,25.78
2023-06-22T03:33:57.915Z,25.78
2023-06-22T03:36:24.751Z,25.78
2023-06-22T03:38:52.899Z,25.78
2023-06-22T03:41:19.858Z,25.77
2023-06-22T03:43:47.544Z,25.76
2023-06-22T03:46:15.809Z,25.77
2023-06-22T03:48:43.494Z,25.77
2023-06-22T03:51:10.872Z,25.76
2023-06-22T03:53:37.637Z,25.78
2023-06-22T03:56:04.708Z,25.78
2023-06-22T03:58:34.174Z,25.78
2023-06-22T04:01:01.284Z,25.80
2023-06-22T04:03:28.126Z,25.83
2023-06-22T04:05:55.068Z,25.86
2023-06-22T04:08:21.922Z,25.88
2023-06-22T04:10:48.773Z,25.93
2023-06-22T04:13:15.572Z,25.96
2023-06-22T04:15:42.401Z,25.96
2023-06-22T04:18:09.213Z,25.98
2023-06-22T04:20:36.479Z,26.00
2023-06-22T04:23:03.690Z,26.04
2023-06-22T04:25:30.481Z,26.08
2023-06-22T04:27:57.436Z,26.16
2023-06-22T04:30:24.220Z,26.23
2023-06-22T04:33:00.393Z,26.25
2023-06-22T04:35:27.288Z,26.26
2023-06-22T04:37:56.471Z,26.29
2023-06-22T04:40:24.277Z,26.30
2023-06-22T04:42:54.556Z,26.30
2023-06-22T04:45:22.417Z,26.29
2023-06-22T04:47:49.683Z,26.31
2023-06-22T04:50:16.754Z,26.36
2023-06-22T04:52:43.644Z,26.44
2023-06-22T04:55:10.421Z,26.52
2023-06-22T04:57:40.502Z,26.59
2023-06-22T05:00:14.270Z,26.67
2023-06-22T05:02:42.591Z,26.74
2023-06-22T05:05:10.058Z,26.74
2023-06-22T05:07:37.703Z,26.75
2023-06-22T05:10:06.185Z,26.77
2023-06-22T05:12:33.048Z,26.81
2023-06-22T05:14:59.931Z,26.83
2023-06-22T05:17:26.864Z,26.84
2023-06-22T05:19:54.524Z,26.90
2023-06-22T05:22:21.371Z,26.97
2023-06-22T05:24:48.343Z,27.04
2023-06-22T05:27:15.647Z,27.12
2023-06-22T05:29:43.906Z,27.22
2023-06-22T05:32:11.200Z,27.32
2023-06-22T05:34:38.307Z,27.42
2023-06-22T05:37:05.444Z,27.51
2023-06-22T05:39:32.303Z,27.60
2023-06-22T05:41:59.073Z,27.67
2023-06-22T05:44:25.908Z,27.74
2023-06-22T05:46:52.715Z,27.82
2023-06-22T05:49:19.797Z,27.91
2023-06-22T05:51:46.564Z,27.99
2023-06-22T05:54:15.100Z,28.07
2023-06-22T05:56:42.054Z,28.16
2023-06-22T05:59:08.877Z,28.27
2023-06-22T06:01:37.146Z,28.40
2023-06-22T06:04:05.576Z,28.55
2023-06-22T06:06:32.656Z,28.68
2023-06-22T06:09:00.849Z,28.83
2023-06-22T06:11:28.151Z,28.98
2023-06-22T06:13:55.373Z,29.13
2023-06-22T06:16:22.905Z,29.26
2023-06-22T06:18:51.732Z,29.41
2023-06-22T06:21:18.856Z,29.51
2023-06-22T06:23:49.240Z,29.59
2023-06-22T06:26:17.805Z,29.62
2023-06-22T06:28:45.437Z,29.63
2023-06-22T06:31:13.319Z,29.66
2023-06-22T06:33:42.792Z,29.68
2023-06-22T06:36:09.711Z,29.68
2023-06-22T06:38:36.548Z,29.68
2023-06-22T06:41:03.398Z,29.68
2023-06-22T06:43:30.274Z,29.67
2023-06-22T06:45:57.086Z,29.68
2023-06-22T06:48:24.309Z,29.71
2023-06-22T06:50:51.356Z,29.72
2023-06-22T06:53:18.194Z,29.71
2023-06-22T06:55:47.024Z,29.69
2023-06-22T06:58:14.471Z,29.68
2023-06-22T07:00:41.408Z,29.71
2023-06-22T07:03:08.386Z,29.77
2023-06-22T07:05:35.348Z,29.83
2023-06-22T07:08:02.908Z,29.88
2023-06-22T07:10:30.958Z,29.92
2023-06-22T07:12:58.737Z,29.97
2023-06-22T07:15:26.301Z,30.07
2023-06-22T07:17:53.283Z,30.17
2023-06-22T07:20:20.990Z,30.27
2023-06-22T07:22:48.047Z,30.36
2023-06-22T07:25:18.852Z,30.43
2023-06-22T07:27:58.131Z,30.47
2023-06-22T07:30:25.167Z,30.53
2023-06-22T07:32:52.286Z,30.61
2023-06-22T07:35:19.071Z,30.71
2023-06-22T07:37:46.030Z,30.83
2023-06-22T07:40:13.249Z,30.92
2023-06-22T07:42:40.150Z,30.96
2023-06-22T07:45:09.565Z,31.01
2023-06-22T07:47:37.155Z,31.07
2023-06-22T07:50:04.808Z,31.18
2023-06-22T07:52:32.766Z,31.31
2023-06-22T07:54:59.647Z,31.45
2023-06-22T07:57:34.922Z,31.61
2023-06-22T08:00:05.193Z,31.81
2023-06-22T08:02:40.310Z,32.01
2023-06-22T08:05:19.999Z,32.24
2023-06-22T08:07:48.805Z,32.48
2023-06-22T08:10:16.206Z,32.71
2023-06-22T08:12:43.513Z,32.89
2023-06-22T08:15:11.224Z,33.04
2023-06-22T08:17:39.860Z,33.18
2023-06-22T08:20:11.169Z,33.32
2023-06-22T08:22:38.089Z,33.44
2023-06-22T08:25:05.532Z,33.59
2023-06-22T08:27:35.419Z,33.73
2023-06-22T08:30:02.756Z,33.92
2023-06-22T08:32:30.318Z,34.11
2023-06-22T08:34:58.389Z,34.31
2023-06-22T08:37:31.465Z,34.44
2023-06-22T08:40:23.981Z,34.52
2023-06-22T08:42:51.159Z,34.61
2023-06-22T08:45:18.003Z,34.66
2023-06-22T08:47:44.930Z,34.75
2023-06-22T08:50:13.488Z,34.87
2023-06-22T08:52:44.758Z,35.06
2023-06-22T08:55:12.186Z,35.22
2023-06-22T08:57:40.421Z,35.21
2023-06-22T09:00:21.304Z,35.15
2023-06-22T09:02:49.287Z,35.13
2023-06-22T09:05:17.107Z,35.05
2023-06-22T09:07:44.425Z,34.95
2023-06-22T09:10:11.718Z,34.95
2023-06-22T09:12:39.099Z,34.98
2023-06-22T09:15:10.362Z,34.94
2023-06-22T09:17:39.669Z,34.84
2023-06-22T09:20:08.427Z,34.72
2023-06-22T09:22:35.373Z,34.69
2023-06-22T09:25:02.307Z,34.66
2023-06-22T09:27:29.466Z,34.62
2023-06-22T09:29:56.401Z,34.63
2023-06-22T09:32:23.130Z,34.85
2023-06-22T09:34:50.115Z,35.09
2023-06-22T09:37:17.080Z,35.35
2023-06-22T09:39:44.011Z,35.59
2023-06-22T09:42:10.872Z,35.83
2023-06-22T09:44:37.656Z,36.09
2023-06-22T09:47:04.722Z,36.31
2023-06-22T09:49:47.438Z,36.50
2023-06-22T09:52:15.949Z,36.59
2023-06-22T09:54:42.666Z,36.62
2023-06-22T09:57:09.431Z,36.72
2023-06-22T09:59:36.444Z,36.89
2023-06-22T10:02:03.263Z,36.93
2023-06-22T10:04:30.431Z,36.82
2023-06-22T10:06:57.842Z,36.84
2023-06-22T10:09:24.640Z,36.88
2023-06-22T10:11:51.739Z,36.96
2023-06-22T10:14:18.455Z,37.10
2023-06-22T10:16:47.742Z,37.23
2023-06-22T10:19:14.543Z,37.33
2023-06-22T10:21:41.327Z,37.36
2023-06-22T10:24:08.259Z,37.31
2023-06-22T10:26:35.210Z,37.30
2023-06-22T10:29:15.765Z,37.35
2023-06-22T10:31:43.288Z,37.43
2023-06-22T10:34:10.189Z,37.53
2023-06-22T10:36:36.971Z,37.65
2023-06-22T10:39:04.292Z,37.76
2023-06-22T10:41:32.203Z,37.87
2023-06-22T10:43:59.290Z,37.93
2023-06-22T10:46:29.555Z,37.99
2023-06-22T10:48:58.309Z,38.09
2023-06-22T10:51:25.350Z,38.19
2023-06-22T10:53:52.270Z,38.25
2023-06-22T10:56:19.854Z,38.31
2023-06-22T10:58:47.073Z,38.38
2023-06-22T11:04:01.330Z,38.58
2023-06-22T11:06:28.182Z,38.59
2023-06-22T11:09:04.717Z,38.65
2023-06-22T11:11:34.126Z,38.80
2023-06-22T11:14:00.882Z,38.90
2023-06-22T11:16:28.618Z,38.87
2023-06-22T11:18:55.455Z,38.83
2023-06-22T11:21:22.212Z,38.87
2023-06-22T11:23:49.922Z,38.93
2023-06-22T11:26:16.663Z,38.98
2023-06-22T11:28:43.453Z,38.99
2023-06-22T11:31:24.466Z,39.00
2023-06-22T11:33:52.678Z,39.00
2023-06-22T11:36:20.135Z,38.96
2023-06-22T11:38:46.913Z,38.93
2023-06-22T11:41:13.777Z,38.91
2023-06-22T11:43:40.598Z,38.88
2023-06-22T11:46:07.406Z,38.85
2023-06-22T11:48:34.129Z,38.89
2023-06-22T11:51:01.708Z,38.96
2023-06-22T11:53:28.887Z,38.98
2023-06-22T11:55:56.516Z,39.04
2023-06-22T11:58:23.832Z,39.11
2023-06-22T12:00:52.564Z,39.12
2023-06-22T12:03:22.884Z,39.07
2023-06-22T12:05:53.414Z,39.06
2023-06-22T12:08:20.489Z,39.10
2023-06-22T12:10:47.442Z,39.14
2023-06-22T12:13:14.299Z,39.16
2023-06-22T12:15:41.031Z,39.15
2023-06-22T12:18:08.089Z,39.11
2023-06-22T12:20:34.879Z,39.08
2023-06-22T12:23:01.718Z,39.00
2023-06-22T12:25:28.490Z,38.99
2023-06-22T12:27:55.488Z,39.03
2023-06-22T12:30:22.265Z,39.09
2023-06-22T12:32:49.082Z,39.16
2023-06-22T12:35:16.022Z,39.19
2023-06-22T12:37:43.740Z,39.19
2023-06-22T12:40:11.401Z,39.16
2023-06-22T12:42:38.406Z,39.21
2023-06-22T12:45:06.282Z,39.24
2023-06-22T12:47:33.183Z,39.20
2023-06-22T12:50:00.063Z,39.17
2023-06-22T12:52:26.835Z,39.17
2023-06-22T12:54:55.591Z,39.16
2023-06-22T12:57:23.329Z,39.15
2023-06-22T12:59:50.526Z,39.18
2023-06-22T13:02:17.522Z,39.25
2023-06-22T13:04:44.663Z,39.27
2023-06-22T13:07:22.246Z,39.22
2023-06-22T13:09:54.153Z,39.19
2023-06-22T13:12:22.034Z,39.21
2023-06-22T13:14:49.574Z,39.23
2023-06-22T13:17:16.476Z,39.17
2023-06-22T13:19:43.385Z,39.05
2023-06-22T13:22:29.515Z,39.02
2023-06-22T13:24:59.825Z,39.02
2023-06-22T13:27:26.660Z,38.97
2023-06-22T13:29:53.763Z,38.94
2023-06-22T13:32:20.651Z,38.90
2023-06-22T13:34:47.608Z,38.88
2023-06-22T13:37:14.407Z,38.93
2023-06-22T13:39:42.550Z,38.99
2023-06-22T13:42:09.484Z,39.02
2023-06-22T13:44:36.284Z,39.04
2023-06-22T13:47:03.097Z,39.04
2023-06-22T13:49:29.830Z,39.06
2023-06-22T13:51:56.565Z,39.06
2023-06-22T13:56:53.199Z,39.06
2023-06-22T13:59:21.156Z,39.07
2023-06-22T14:01:48.053Z,38.98
2023-06-22T14:04:15.107Z,38.95
2023-06-22T14:06:41.868Z,38.93
2023-06-22T14:09:08.558Z,38.92
2023-06-22T14:11:35.292Z,38.90
2023-06-22T14:14:02.008Z,38.93
2023-06-22T14:16:28.864Z,38.96
2023-06-22T14:18:57.831Z,38.99
2023-06-22T14:21:27.437Z,39.02
2023-06-22T14:23:54.172Z,38.95
2023-06-22T14:26:20.929Z,38.92
2023-06-22T14:28:51.203Z,38.93
2023-06-22T14:31:19.790Z,38.90
2023-06-22T14:33:48.745Z,38.78
2023-06-22T14:36:17.017Z,38.65
2023-06-22T14:38:44.528Z,38.54
2023-06-22T14:41:14.669Z,38.48
2023-06-22T14:43:46.693Z,38.43
2023-06-22T14:46:13.676Z,38.34
2023-06-22T14:48:40.492Z,38.28
2023-06-22T14:51:07.186Z,38.32
2023-06-22T14:53:33.942Z,38.31
2023-06-22T14:56:03.023Z,38.25
2023-06-22T14:58:36.931Z,38.21
2023-06-22T15:01:04.750Z,38.16
2023-06-22T15:03:33.661Z,38.13
2023-06-22T15:06:01.754Z,38.12
2023-06-22T15:08:28.623Z,38.17
2023-06-22T15:10:55.662Z,38.12
2023-06-22T15:13:23.694Z,38.04
2023-06-22T15:15:51.860Z,37.91
2023-06-22T15:18:18.681Z,37.79
2023-06-22T15:20:46.783Z,37.69
2023-06-22T15:23:13.939Z,37.58
2023-06-22T15:25:41.403Z,37.46
2023-06-22T15:28:08.649Z,37.34
2023-06-22T15:30:35.601Z,37.24
2023-06-22T15:33:02.770Z,37.16
2023-06-22T15:35:31.612Z,37.09
2023-06-22T15:37:58.506Z,37.03
2023-06-22T15:40:25.279Z,36.97
2023-06-22T15:42:53.945Z,36.93
2023-06-22T15:45:21.392Z,36.88
2023-06-22T15:47:48.338Z,36.83
2023-06-22T15:50:15.448Z,36.80
2023-06-22T15:52:42.375Z,36.78
2023-06-22T15:55:10.804Z,36.80
2023-06-22T15:57:37.942Z,36.82
2023-06-22T16:00:06.373Z,36.86
2023-06-22T16:02:34.788Z,36.85
2023-06-22T16:05:02.264Z,36.84
2023-06-22T16:07:29.362Z,36.86
2023-06-22T16:09:57.762Z,36.86
2023-06-22T16:12:27.813Z,36.87
2023-06-22T16:14:54.623Z,36.90
2023-06-22T16:17:22.267Z,36.91
2023-06-22T16:19:49.328Z,36.90
2023-06-22T16:22:16.205Z,36.85
2023-06-22T16:24:43.087Z,36.81
2023-06-22T16:27:09.952Z,36.78
2023-06-22T16:29:37.733Z,36.75
2023-06-22T16:32:05.083Z,36.74
2023-06-22T16:34:32.148Z,36.70
2023-06-22T16:36:59.048Z,36.68
2023-06-22T16:39:25.858Z,36.66
2023-06-22T16:41:53.803Z,36.63
2023-06-22T16:44:21.391Z,36.58
2023-06-22T16:46:48.292Z,36.51
2023-06-22T16:49:15.266Z,36.45
2023-06-22T16:51:42.199Z,36.40
2023-06-22T16:54:09.109Z,36.37
2023-06-22T16:56:36.696Z,36.34
2023-06-22T16:59:07.638Z,36.30
2023-06-22T17:01:36.129Z,36.24
2023-06-22T17:04:08.561Z,36.20
2023-06-22T17:06:36.658Z,36.14
2023-06-22T17:09:05.530Z,36.08
2023-06-22T17:11:32.805Z,36.04
2023-06-22T17:13:59.649Z,36.00
2023-06-22T17:16:32.972Z,35.95
2023-06-22T17:19:04.862Z,35.92
2023-06-22T17:21:34.350Z,35.86
2023-06-22T17:24:03.979Z,35.80
2023-06-22T17:26:32.923Z,35.73
2023-06-22T17:29:02.759Z,35.68
2023-06-22T17:31:40.286Z,35.65
2023-06-22T17:34:11.381Z,35.60
2023-06-22T17:36:58.005Z,35.55
2023-06-22T17:39:27.838Z,35.49
2023-06-22T17:41:55.137Z,35.43
2023-06-22T17:44:27.655Z,35.37
2023-06-22T17:46:56.441Z,35.29
2023-06-22T17:49:27.509Z,35.21
2023-06-22T17:51:54.616Z,35.15
2023-06-22T17:54:30.269Z,35.10
2023-06-22T17:57:16.307Z,35.05
2023-06-22T17:59:48.930Z,35.00
2023-06-22T18:02:21.115Z,34.96
2023-06-22T18:04:48.036Z,34.90
2023-06-22T18:07:14.974Z,34.84
2023-06-22T18:09:41.744Z,34.79
2023-06-22T18:12:11.022Z,34.74
2023-06-22T18:14:38.918Z,34.68
2023-06-22T18:17:06.530Z,34.62
2023-06-22T18:19:36.809Z,34.54
2023-06-22T18:22:03.772Z,34.48
2023-06-22T18:24:34.304Z,34.42
2023-06-22T18:27:03.469Z,34.35
2023-06-22T18:29:31.893Z,34.26
2023-06-22T18:31:58.991Z,34.18
2023-06-22T18:34:29.199Z,34.11
2023-06-22T18:36:58.261Z,34.05
2023-06-22T18:39:27.096Z,33.98
2023-06-22T18:41:58.835Z,33.90
2023-06-22T18:44:26.290Z,33.83
2023-06-22T18:46:57.737Z,33.77
2023-06-22T18:49:32.675Z,33.73
2023-06-22T18:52:11.562Z,33.70
2023-06-22T18:54:49.463Z,33.66
2023-06-22T18:57:27.561Z,33.61
2023-06-22T18:59:57.582Z,33.54
2023-06-22T19:02:33.475Z,33.41
2023-06-22T19:05:12.518Z,33.32
2023-06-22T19:08:03.616Z,33.24
2023-06-22T19:10:39.593Z,33.18
2023-06-22T19:13:21.551Z,33.13
2023-06-22T19:15:53.128Z,33.08
2023-06-22T19:18:24.816Z,32.98
2023-06-22T19:21:10.500Z,32.87
2023-06-22T19:23:41.914Z,32.78
2023-06-22T19:26:11.454Z,32.70
2023-06-22T19:28:52.401Z,32.63
2023-06-22T19:31:21.248Z,32.57
2023-06-22T19:33:51.938Z,32.49
2023-06-22T19:36:22.253Z,32.41
2023-06-22T19:38:49.534Z,32.35
2023-06-22T19:41:16.550Z,32.28
2023-06-22T19:43:43.585Z,32.13
2023-06-22T19:46:10.382Z,32.03
2023-06-22T19:48:37.292Z,31.95
2023-06-22T19:51:05.946Z,31.88
2023-06-22T19:53:32.984Z,31.81
2023-06-22T19:56:00.040Z,31.76
2023-06-22T19:58:27.222Z,31.70
2023-06-22T20:00:57.434Z,31.62
2023-06-22T20:03:29.046Z,31.54
2023-06-22T20:06:08.458Z,31.42
2023-06-22T20:08:50.739Z,31.24
2023-06-22T20:11:30.645Z,31.10
2023-06-22T20:13:59.729Z,31.00
2023-06-22T20:16:28.097Z,30.88
2023-06-22T20:19:35.410Z,30.83
2023-06-22T20:22:08.523Z,30.80
2023-06-22T20:24:35.486Z,30.77
2023-06-22T20:27:02.224Z,30.75
2023-06-22T20:29:33.760Z,30.72
2023-06-22T20:32:11.796Z,30.65
2023-06-22T20:34:46.215Z,30.59
2023-06-22T20:37:14.322Z,30.56
2023-06-22T20:39:42.171Z,30.55
2023-06-22T20:42:09.426Z,30.49
2023-06-22T20:44:36.462Z,30.41
2023-06-22T20:47:04.834Z,30.29
2023-06-22T20:49:32.216Z,30.15
2023-06-22T20:51:59.206Z,30.06
2023-06-22T20:54:26.107Z,29.96
2023-06-22T20:56:53.253Z,29.90
2023-06-22T20:59:20.165Z,29.85
2023-06-22T21:01:47.276Z,29.82
2023-06-22T21:04:14.926Z,29.77
2023-06-22T21:06:41.847Z,29.71
2023-06-22T21:09:08.946Z,29.68
2023-06-22T21:11:35.820Z,29.61
2023-06-22T21:14:17.738Z,29.57
2023-06-22T21:16:46.332Z,29.55
2023-06-22T21:19:13.074Z,29.52
2023-06-22T21:21:40.038Z,29.45
2023-06-22T21:24:07.205Z,29.38
2023-06-22T21:26:34.120Z,29.34
2023-06-22T21:29:00.883Z,29.35
2023-06-22T21:31:27.764Z,29.36
2023-06-22T21:33:54.836Z,29.38
2023-06-22T21:36:21.958Z,29.37
2023-06-22T21:38:48.818Z,29.34
2023-06-22T21:41:15.678Z,29.30
2023-06-22T21:43:42.441Z,29.25
2023-06-22T21:46:09.313Z,29.19
2023-06-22T21:48:36.337Z,29.16
2023-06-22T21:51:03.130Z,29.13
2023-06-22T21:53:29.932Z,29.13
2023-06-22T21:55:56.689Z,29.14
2023-06-22T21:58:26.879Z,29.14
2023-06-22T22:00:56.311Z,29.13
2023-06-22T22:03:24.345Z,29.05
2023-06-22T22:05:54.777Z,28.95
2023-06-22T22:08:24.356Z,28.88
2023-06-22T22:10:51.217Z,28.87
2023-06-22T22:13:19.844Z,28.89
2023-06-22T22:15:50.107Z,28.91
2023-06-22T22:18:17.261Z,28.91
2023-06-22T22:20:44.280Z,28.92
2023-06-22T22:23:11.104Z,28.94
2023-06-22T22:25:37.918Z,28.95
2023-06-22T22:28:04.773Z,28.95
2023-06-22T22:30:31.596Z,28.97
2023-06-22T22:32:58.422Z,29.00
2023-06-22T22:35:25.321Z,29.03
2023-06-22T22:37:52.137Z,29.05
2023-06-22T22:40:19.718Z,29.05
2023-06-22T22:42:46.491Z,29.04
2023-06-22T22:45:13.374Z,29.03
2023-06-22T22:47:40.361Z,29.02
2023-06-22T22:50:08.403Z,29.01
2023-06-22T22:52:36.097Z,29.01
2023-06-22T22:55:04.394Z,29.03
2023-06-22T22:57:31.185Z,29.04
2023-06-22T22:59:57.990Z,29.05
2023-06-22T23:02:24.922Z,29.06
2023-06-22T23:04:59.898Z,29.09
2023-06-22T23:07:29.631Z,29.11
2023-06-22T23:09:57.014Z,29.04
2023-06-22T23:12:25.011Z,28.91
2023-06-22T23:14:51.998Z,28.88
2023-06-22T23:17:19.125Z,28.89
2023-06-22T23:19:47.698Z,28.90
2023-06-22T23:22:15.279Z,28.89
2023-06-22T23:24:42.452Z,28.83
2023-06-22T23:27:10.645Z,28.73
2023-06-22T23:29:37.456Z,28.62
2023-06-22T23:32:04.684Z,28.52
2023-06-22T23:34:32.069Z,28.45
2023-06-22T23:36:59.859Z,28.43
2023-06-22T23:39:28.157Z,28.44
2023-06-22T23:41:55.143Z,28.47
2023-06-22T23:44:21.984Z,28.48
2023-06-22T23:46:48.693Z,28.51
2023-06-22T23:49:15.662Z,28.54
2023-06-22T23:51:42.784Z,28.57
2023-06-22T23:54:09.514Z,28.58
2023-06-22T23:56:37.831Z,28.58
2023-06-22T23:59:05.110Z,28.58
